
아기가 생겼어요2026
낮과 밤이 다른 그녀2024
넘버스: 빌딩숲의 감시자들2023
사이렌2021
좀비탐정2020
루갈2020
저스티스2019
황후의 품격2018
마성의 기쁨2018
터널2017Choi Jin Hyuk is one of the most popular South Korean actors working today. Born as Kim Tae Ho on February 9, 1986, Choi Jin Hyuk broke into entertainment in 2006 after he won the grand prize in the reality talent show “Survival Star Audition.” He adopted his stage name in 2010 before his role in the drama “It’s Alright, Daddy’s Daughter.” He also starred in “I Need Romance” (2011) and “Panda and Hedgehog” (2012), but it was his memorable roles of a fierce spirit god in the drama “Gu Family Book” and a moody chaebol in “Heirs” in 2013 that elevated Choi Jin Hyuk to superstardom. Leading roles quickly followed starting in 2014 with the popular dramas “Emergency Couple,” “Grandpas Over Flowers Investigation Unit,” “Fated to Love You” and “Pride and Prejudice.” In March 2015, Choi Jin Hyuk enlisted for his mandatory military service, and he made his comeback after discharge in the 2017 drama “Tunnel.”
2017.02.27 ~ 2026.03.16 사이 KONTENTS INDEX K-드라마 차트에 랭크된 113주의 기록입니다. 랭크 밖이던 360주는 기록이 없어 그래프에 나타나지 않습니다. 데뷔 이후 전체 활동이 아니라 차트 등재 구간입니다.
| 주 | KI | 순위 | 변동 |
|---|---|---|---|
| 2026.03.16 | 268 | #40 | ▼2 |
| 2026.03.09 | 269 | #38 | ▼9 |
| 2026.03.02 | 316 | #29 | ▼20 |
| 2026.02.23 | 414 | #9 | ▼1 |
| 2026.02.16 | 440 | #8 | ▲1 |
| 2026.02.09 | 424 | #9 | ▲2 |
| 2026.02.02 | 417 | #11 | ▼2 |
| 2026.01.26 | 487 | #9 | ▲2 |
| 2026.01.19 | 499 | #11 | ▲8 |
| 2026.01.12 | 388 | #19 | — |
| 2024.12.16 | 351 | #19 | ▲10 |
| 2024.09.30 | 371 | #29 | ▲5 |
| 2024.09.23 | 333 | #34 | — |
| 2024.09.09 | 319 | #34 | ▼4 |
| 2024.09.02 | 355 | #30 | ▲4 |
| 2024.08.19 | 370 | #34 | ▼7 |
| 2024.08.12 | 402 | #27 | ▼12 |
| 2024.08.05 | 468 | #15 | ▼2 |
| 2024.07.29 | 451 | #13 | ▼2 |
| 2024.07.22 | 437 | #11 | ▼1 |
| 2024.07.15 | 419 | #10 | ▼2 |
| 2024.07.08 | 472 | #8 | ▲1 |
| 2024.07.01 | 428 | #9 | ▲1 |
| 2024.06.24 | 400 | #10 | ▲5 |
| 2024.06.17 | 397 | #15 | ▲13 |
| 2024.06.10 | 290 | #28 | ▲6 |
| 2023.07.03 | 322 | #34 | ▼9 |
| 2023.06.26 | 383 | #25 | ▼7 |
| 2023.06.19 | 402 | #18 | ▲22 |
| 2021.10.04 | 266 | #40 | ▼3 |
| 2021.03.22 | 370 | #37 | ▼19 |
| 2021.03.15 | 416 | #18 | ▲16 |
| 2021.02.15 | 312 | #34 | ▼13 |
| 2021.02.08 | 431 | #21 | ▲11 |
| 2020.12.21 | 364 | #32 | ▼4 |
| 2020.12.07 | 349 | #28 | ▼10 |
| 2020.10.26 | 366 | #18 | ▲4 |
| 2020.10.19 | 386 | #22 | ▼2 |
| 2020.10.12 | 462 | #20 | — |
| 2020.10.05 | 448 | #20 | ▼4 |
| 2020.09.28 | 483 | #16 | ▼10 |
| 2020.09.21 | 568 | #6 | ▲6 |
| 2020.09.14 | 430 | #12 | ▲2 |
| 2020.09.07 | 432 | #14 | ▼4 |
| 2020.08.31 | 500 | #10 | ▲7 |
| 2020.08.24 | 405 | #17 | ▲13 |
| 2020.05.18 | 360 | #30 | ▼5 |
| 2020.05.11 | 347 | #25 | ▼2 |
| 2020.05.04 | 379 | #23 | ▲6 |
| 2020.04.27 | 425 | #29 | ▼11 |
| 2020.04.20 | 401 | #18 | ▼3 |
| 2020.04.13 | 466 | #15 | ▼3 |
| 2020.04.06 | 504 | #12 | ▼1 |
| 2020.03.30 | 529 | #11 | ▲5 |
| 2020.03.23 | 457 | #16 | ▲12 |
| 2019.11.04 | 366 | #28 | ▼15 |
| 2019.10.28 | 554 | #13 | ▼10 |
| 2019.10.21 | 671 | #3 | ▲33 |
| 2019.09.09 | 350 | #36 | ▼16 |
| 2019.09.02 | 429 | #20 | ▲1 |
| 2019.08.26 | 395 | #21 | ▼3 |
| 2019.08.19 | 402 | #18 | ▲3 |
| 2019.08.12 | 451 | #21 | ▼1 |
| 2019.08.05 | 433 | #20 | ▼2 |
| 2019.07.29 | 454 | #18 | ▼8 |
| 2019.07.22 | 466 | #10 | — |
| 2019.07.15 | 526 | #10 | ▲3 |
| 2019.07.08 | 404 | #13 | ▲14 |
| 2019.07.01 | 347 | #27 | ▲3 |
| 2019.03.18 | 326 | #30 | ▼12 |
| 2019.03.11 | 344 | #18 | ▼6 |
| 2019.03.04 | 471 | #12 | ▼8 |
| 2019.02.25 | 586 | #4 | ▼3 |
| 2019.02.18 | 711 | #1 | — |
| 2019.02.11 | 643 | #1 | ▲3 |
| 2019.02.04 | 533 | #4 | ▲2 |
| 2019.01.28 | 576 | #6 | ▲1 |
| 2019.01.21 | 663 | #7 | ▼2 |
| 2019.01.14 | 631 | #5 | ▲1 |
| 2019.01.07 | 623 | #6 | ▼1 |
| 2018.12.31 | 612 | #5 | ▼1 |
| 2018.12.24 | 604 | #4 | — |
| 2018.12.17 | 664 | #4 | — |
| 2018.12.10 | 629 | #4 | ▲1 |
| 2018.12.03 | 644 | #5 | ▲4 |
| 2018.11.26 | 561 | #9 | ▼7 |
| 2018.11.19 | 681 | #2 | ▲15 |
| 2018.11.12 | 479 | #17 | ▲6 |
| 2018.11.05 | 449 | #23 | ▼7 |
| 2018.10.29 | 461 | #16 | ▼10 |
| 2018.10.22 | 563 | #6 | ▲2 |
| 2018.10.15 | 536 | #8 | ▲2 |
| 2018.10.08 | 523 | #10 | — |
| 2018.10.01 | 636 | #10 | — |
| 2018.09.24 | 591 | #10 | ▲2 |
| 2018.09.17 | 541 | #12 | ▲1 |
| 2018.09.10 | 498 | #13 | ▼3 |
| 2018.09.03 | 505 | #10 | ▲17 |
| 2017.06.12 | 341 | #27 | ▼6 |
| 2017.06.05 | 393 | #21 | ▲2 |
| 2017.05.29 | 400 | #23 | ▼13 |
| 2017.05.22 | 469 | #10 | ▼2 |
| 2017.05.15 | 567 | #8 | ▲4 |
| 2017.05.08 | 577 | #12 | ▼4 |
| 2017.05.01 | 610 | #8 | ▼1 |
| 2017.04.24 | 553 | #7 | — |
| 2017.04.17 | 558 | #7 | — |
| 2017.04.10 | 558 | #7 | ▲2 |
| 2017.04.03 | 548 | #9 | ▼1 |
| 2017.03.27 | 568 | #8 | ▲7 |
| 2017.03.20 | 512 | #15 | ▲9 |
| 2017.03.13 | 478 | #24 | ▼9 |
| 2017.02.27 | 471 | #15 | — |
지표
기록 113주차. K-드라마 40위, KI 268. 15위로 출발해 2019.02에 1위까지 올랐고, 지금은 40위다. 직전 주 38위에서 2계단 내려왔다. 최고점은 2019-02-11 주 643였다. 집계 대상 5명 중 상위 800%다.
랭크된 주만 기록됩니다 — 연속된 주가 아닐 수 있습니다.
38위에서 2계단 내려와 40위. KI 268 (-0.5%). 4주 연속 하락이다. 1위 유연석의 39% 수준.
29위에서 9계단 내려와 38위. KI 269 (-14.7%). 3주 연속 하락이다. 1위 서인국의 42% 수준.
9위에서 20계단 내려와 29위. KI 316 (-23.6%). 2주 연속 하락이다. 1위 김선호의 54% 수준.
8위에서 1계단 내려와 9위. KI 414 (-6.0%). 1위 문상민의 58% 수준.
9위에서 1계단 올라 8위. KI 440 (+3.8%). 2주 연속 상승이다. 1위 김선호의 61% 수준.
11위에서 2계단 올라 9위. KI 424 (+1.6%). 1위 김선호의 56% 수준.
9위에서 2계단 내려와 11위. KI 417 (-14.3%). 1위 김선호의 49% 수준.
11위에서 2계단 올라 9위. KI 487 (-2.5%). 2주 연속 상승이다. 1위 김선호의 59% 수준.
19위에서 8계단 올라 11위. KI 499 (+28.5%). 1위 김선호의 58% 수준.
19위 유지. KI 388 (+10.6%). 1위 이제훈의 55% 수준.
29위에서 10계단 올라 19위. KI 351 (-5.5%). 2주 연속 상승이다. 1위 추영우의 43% 수준.
34위에서 5계단 올라 29위. KI 371 (+11.6%). 1위 정해인의 37% 수준.
34위 유지. KI 333 (+4.2%). 1위 정해인의 33% 수준.
30위에서 4계단 내려와 34위. KI 319 (-10.0%). 1위 정해인의 36% 수준.
34위에서 4계단 올라 30위. KI 355 (-4.2%). 1위 정해인의 39% 수준.
27위에서 7계단 내려와 34위. KI 370 (-7.9%). 6주 연속 하락이다. 1위 정해인의 42% 수준.
15위에서 12계단 내려와 27위. KI 402 (-14.0%). 5주 연속 하락이다. 1위 변우석의 56% 수준.
13위에서 2계단 내려와 15위. KI 468 (+3.8%). 4주 연속 하락이다. 1위 변우석의 64% 수준.
11위에서 2계단 내려와 13위. KI 451 (+3.2%). 3주 연속 하락이다. 1위 변우석의 61% 수준.
10위에서 1계단 내려와 11위. KI 437 (+4.2%). 2주 연속 하락이다. 1위 변우석의 57% 수준.
8위에서 2계단 내려와 10위. KI 419 (-11.1%). 1위 변우석의 54% 수준.
9위에서 1계단 올라 8위. KI 472 (+10.3%). 5주 연속 상승이다. 1위 변우석의 61% 수준.
10위에서 1계단 올라 9위. KI 428 (+7.0%). 4주 연속 상승이다. 1위 변우석의 56% 수준.
15위에서 5계단 올라 10위. KI 400 (+0.8%). 3주 연속 상승이다. 1위 변우석의 51% 수준.
28위에서 13계단 올라 15위. KI 397 (+37.0%). 2주 연속 상승이다. 1위 변우석의 50% 수준.
34위에서 6계단 올라 28위. KI 290 (-9.9%). 1위 변우석의 36% 수준.
25위에서 9계단 내려와 34위. KI 322 (-16.0%). 2주 연속 하락이다. 1위 이준호의 32% 수준.
18위에서 7계단 내려와 25위. KI 383 (-4.8%). 1위 이준호의 43% 수준.
40위에서 22계단 올라 18위. KI 402 (+51.3%). 1위 이준호의 49% 수준.
37위에서 3계단 내려와 40위. KI 266 (-28.1%). 2주 연속 하락이다. 1위 김선호의 27% 수준.
18위에서 19계단 내려와 37위. KI 370 (-11.1%). 1위 송중기의 40% 수준.
34위에서 16계단 올라 18위. KI 416 (+33.2%). 1위 송중기의 49% 수준.
21위에서 13계단 내려와 34위. KI 312 (-27.6%). 1위 송중기의 46% 수준.
32위에서 11계단 올라 21위. KI 431 (+18.5%). 1위 차은우의 53% 수준.
28위에서 4계단 내려와 32위. KI 364 (+4.2%). 2주 연속 하락이다. 1위 차은우의 48% 수준.
18위에서 10계단 내려와 28위. KI 349 (-4.5%). 1위 차은우의 53% 수준.
22위에서 4계단 올라 18위. KI 366 (-5.3%). 1위 이동욱의 57% 수준.
20위에서 2계단 내려와 22위. KI 386 (-16.4%). 1위 이동욱의 56% 수준.
20위 유지. KI 462 (+3.1%). 1위 이도현의 58% 수준.
16위에서 4계단 내려와 20위. KI 448 (-7.1%). 2주 연속 하락이다. 1위 이도현의 57% 수준.
6위에서 10계단 내려와 16위. KI 483 (-15.0%). 1위 이도현의 63% 수준.
12위에서 6계단 올라 6위. KI 568 (+32.1%). 2주 연속 상승이다. 1위 이도현의 73% 수준.
14위에서 2계단 올라 12위. KI 430 (-0.4%). 1위 박보검의 53% 수준.
10위에서 4계단 내려와 14위. KI 432 (-13.7%). 1위 박보검의 50% 수준.
17위에서 7계단 올라 10위. KI 500 (+23.4%). 2주 연속 상승이다. 1위 이준기의 67% 수준.
30위에서 13계단 올라 17위. KI 405 (+12.6%). 1위 이준기의 54% 수준.
25위에서 5계단 내려와 30위. KI 360 (+4.0%). 2주 연속 하락이다. 1위 박해준의 49% 수준.
23위에서 2계단 내려와 25위. KI 347 (-8.5%). 1위 박해준의 47% 수준.
29위에서 6계단 올라 23위. KI 379 (-10.9%). 1위 박해준의 47% 수준.
18위에서 11계단 내려와 29위. KI 425 (+5.9%). 4주 연속 하락이다. 1위 박해준의 49% 수준.
15위에서 3계단 내려와 18위. KI 401 (-14.0%). 3주 연속 하락이다. 1위 박해준의 51% 수준.
12위에서 3계단 내려와 15위. KI 466 (-7.4%). 2주 연속 하락이다. 1위 박해준의 54% 수준.
11위에서 1계단 내려와 12위. KI 504 (-4.8%). 1위 박해준의 56% 수준.
16위에서 5계단 올라 11위. KI 529 (+15.8%). 2주 연속 상승이다. 1위 박해준의 64% 수준.
28위에서 12계단 올라 16위. KI 457 (+24.9%). 1위 박서준의 57% 수준.
13위에서 15계단 내려와 28위. KI 366 (-34.0%). 2주 연속 하락이다. 1위 강하늘의 47% 수준.
3위에서 10계단 내려와 13위. KI 554 (-17.4%). 1위 강하늘의 67% 수준.
36위에서 33계단 올라 3위. KI 671 (+91.4%). 1위 강하늘의 86% 수준.
20위에서 16계단 내려와 36위. KI 350 (-18.4%). 1위 임시완의 53% 수준.
21위에서 1계단 올라 20위. KI 429 (+8.7%). 1위 여진구의 60% 수준.
18위에서 3계단 내려와 21위. KI 395 (-1.8%). 1위 여진구의 56% 수준.
21위에서 3계단 올라 18위. KI 402 (-10.9%). 1위 여진구의 59% 수준.
20위에서 1계단 내려와 21위. KI 451 (+4.2%). 3주 연속 하락이다. 1위 여진구의 61% 수준.
18위에서 2계단 내려와 20위. KI 433 (-4.6%). 2주 연속 하락이다. 1위 여진구의 64% 수준.
10위에서 8계단 내려와 18위. KI 454 (-2.6%). 1위 강지환의 63% 수준.
10위 유지. KI 466 (-11.4%). 1위 옹성우의 68% 수준.
13위에서 3계단 올라 10위. KI 526 (+30.3%). 3주 연속 상승이다. 1위 강지환의 65% 수준.
27위에서 14계단 올라 13위. KI 404 (+16.4%). 2주 연속 상승이다. 1위 강지환의 55% 수준.
30위에서 3계단 올라 27위. KI 347 (+6.3%). 1위 오창석의 48% 수준.
18위에서 12계단 내려와 30위. KI 326 (-5.2%). 4주 연속 하락이다. 1위 차태현의 51% 수준.
12위에서 6계단 내려와 18위. KI 344 (-26.9%). 3주 연속 하락이다. 1위 차태현의 55% 수준.
4위에서 8계단 내려와 12위. KI 471 (-19.7%). 2주 연속 하락이다. 1위 이종석의 71% 수준.
1위에서 3계단 내려와 4위. KI 586 (-17.5%). 1위 이종석의 82% 수준.
1위 유지. KI 711 (+10.5%). 기록 이래 가장 높은 KI다. 2위 정일우를 1% 앞섰다.
4위에서 3계단 올라 1위. KI 643 (+20.8%). 3주 연속 상승이다. 기록 이래 가장 높은 순위다. 2위 이종석를 3% 앞섰다.
6위에서 2계단 올라 4위. KI 533 (-7.6%). 2주 연속 상승이다. 1위 이종석의 84% 수준.
7위에서 1계단 올라 6위. KI 576 (-13.0%). 1위 이종석의 85% 수준.
5위에서 2계단 내려와 7위. KI 663 (+5.1%). 1위 현빈의 76% 수준.
6위에서 1계단 올라 5위. KI 631 (+1.2%). 1위 현빈의 81% 수준.
5위에서 1계단 내려와 6위. KI 623 (+1.8%). 2주 연속 하락이다. 1위 현빈의 79% 수준.
4위에서 1계단 내려와 5위. KI 612 (+1.4%). 1위 현빈의 88% 수준.
4위 유지. KI 604 (-9.1%). 1위 현빈의 86% 수준.
4위 유지. KI 664 (+5.6%). 1위 현빈의 87% 수준.
5위에서 1계단 올라 4위. KI 629 (-2.3%). 2주 연속 상승이다. 1위 유승호의 83% 수준.
9위에서 4계단 올라 5위. KI 644 (+14.7%). 1위 박보검의 82% 수준.
2위에서 7계단 내려와 9위. KI 561 (-17.6%). 1위 현빈의 71% 수준.
17위에서 15계단 올라 2위. KI 681 (+42.2%). 2주 연속 상승이다. 1위 이민기의 94% 수준으로 접전.
23위에서 6계단 올라 17위. KI 479 (+6.6%). 1위 이민기의 65% 수준.
16위에서 7계단 내려와 23위. KI 449 (-2.5%). 2주 연속 하락이다. 1위 이종석의 61% 수준.
6위에서 10계단 내려와 16위. KI 461 (-18.2%). 1위 도경수의 63% 수준.
8위에서 2계단 올라 6위. KI 563 (+5.0%). 2주 연속 상승이다. 1위 이민기의 77% 수준.
10위에서 2계단 올라 8위. KI 536 (+2.5%). 1위 이민기의 78% 수준.
10위 유지. KI 523 (-17.8%). 1위 이민기의 80% 수준.
10위 유지. KI 636 (+7.7%). 1위 서인국의 77% 수준.
12위에서 2계단 올라 10위. KI 591 (+9.3%). 2주 연속 상승이다. 1위 이병헌의 77% 수준.
13위에서 1계단 올라 12위. KI 541 (+8.6%). 1위 이병헌의 70% 수준.
10위에서 3계단 내려와 13위. KI 498 (-1.5%). 1위 차은우의 65% 수준.
27위에서 17계단 올라 10위. KI 505 (+48.2%). 1위 차은우의 63% 수준.
21위에서 6계단 내려와 27위. KI 341 (-13.3%). 1위 지창욱의 39% 수준.
23위에서 2계단 올라 21위. KI 393 (-1.7%). 1위 지창욱의 45% 수준.
10위에서 13계단 내려와 23위. KI 400 (-14.7%). 2주 연속 하락이다. 1위 지창욱의 46% 수준.
8위에서 2계단 내려와 10위. KI 469 (-17.3%). 1위 지창욱의 60% 수준.
12위에서 4계단 올라 8위. KI 567 (-1.7%). 1위 지창욱의 67% 수준.
8위에서 4계단 내려와 12위. KI 577 (-5.4%). 2주 연속 하락이다. 1위 지창욱의 71% 수준.
7위에서 1계단 내려와 8위. KI 610 (+10.2%). 1위 유아인의 82% 수준.
7위 유지. KI 553 (-0.9%). 1위 박성웅의 77% 수준.
7위 유지. KI 558 (+0.1%). 1위 윤현민의 71% 수준.
9위에서 2계단 올라 7위. KI 558 (+1.7%). 1위 박형식의 66% 수준.
8위에서 1계단 내려와 9위. KI 548 (-3.5%). 1위 유아인의 70% 수준.
15위에서 7계단 올라 8위. KI 568 (+10.9%). 2주 연속 상승이다. 1위 윤현민의 63% 수준.
24위에서 9계단 올라 15위. KI 512 (+7.2%). 1위 박형식의 65% 수준.
15위에서 9계단 내려와 24위. KI 478 (+1.4%). 1위 박형식의 60% 수준.
KI 기록이 시작된 첫 주. K-드라마 15위로 출발했다. KI 471. 1위 공유의 68% 수준.